createdAt,value
2019-06-01T00:01:06.650Z,14.90
2019-06-01T00:03:42.821Z,14.80
2019-06-01T00:06:19.034Z,14.70
2019-06-01T00:08:55.209Z,14.60
2019-06-01T00:11:31.410Z,14.50
2019-06-01T00:14:07.653Z,14.50
2019-06-01T00:16:44.257Z,14.30
2019-06-01T00:19:20.526Z,14.30
2019-06-01T00:21:56.699Z,14.20
2019-06-01T00:24:32.829Z,14.10
2019-06-01T00:27:09.065Z,14.00
2019-06-01T00:29:45.279Z,14.00
2019-06-01T00:32:21.528Z,14.00
2019-06-01T00:34:57.675Z,13.90
2019-06-01T00:37:33.847Z,14.00
2019-06-01T00:40:09.991Z,14.00
2019-06-01T00:42:46.228Z,14.00
2019-06-01T00:45:22.441Z,14.10
2019-06-01T00:47:58.704Z,14.20
2019-06-01T00:50:34.917Z,14.20
2019-06-01T00:53:11.236Z,14.30
2019-06-01T00:55:47.497Z,14.30
2019-06-01T00:58:24.007Z,14.40
2019-06-01T01:01:00.279Z,14.40
2019-06-01T01:03:36.443Z,14.30
2019-06-01T01:06:12.585Z,14.30
2019-06-01T01:08:49.070Z,14.20
2019-06-01T01:11:25.349Z,14.10
2019-06-01T01:14:01.524Z,14.00
2019-06-01T01:16:37.652Z,13.90
2019-06-01T01:19:13.832Z,13.80
2019-06-01T01:21:52.172Z,13.80
2019-06-01T01:24:28.378Z,13.80
2019-06-01T01:27:04.696Z,13.80
2019-06-01T01:29:40.905Z,13.80
2019-06-01T01:32:17.092Z,13.80
2019-06-01T01:34:53.690Z,13.80
2019-06-01T01:37:29.967Z,13.70
2019-06-01T01:40:06.615Z,13.70
2019-06-01T01:42:42.837Z,13.70
2019-06-01T01:45:19.001Z,13.60
2019-06-01T01:47:55.243Z,13.60
2019-06-01T01:50:31.447Z,13.50
2019-06-01T01:53:07.689Z,13.50
2019-06-01T01:55:44.225Z,13.50
2019-06-01T01:58:20.475Z,13.40
2019-06-01T02:00:58.413Z,13.40
2019-06-01T02:03:34.469Z,13.30
2019-06-01T02:06:10.684Z,13.30
2019-06-01T02:08:46.924Z,13.20
2019-06-01T02:11:23.069Z,13.10
2019-06-01T02:13:59.979Z,13.10
2019-06-01T02:16:36.357Z,13.00
2019-06-01T02:19:12.601Z,13.00
2019-06-01T02:21:48.791Z,13.00
2019-06-01T02:24:25.033Z,13.00
2019-06-01T02:27:01.364Z,12.90
2019-06-01T02:29:37.611Z,12.90
2019-06-01T02:32:13.821Z,12.80
2019-06-01T02:34:49.999Z,12.80
2019-06-01T02:37:26.221Z,12.70
2019-06-01T02:40:03.282Z,12.70
2019-06-01T02:42:41.173Z,12.70
2019-06-01T02:45:18.702Z,12.70
2019-06-01T02:47:55.384Z,12.70
2019-06-01T02:50:31.754Z,12.70
2019-06-01T02:53:08.508Z,12.70
2019-06-01T02:55:44.692Z,12.70
2019-06-01T02:58:20.747Z,12.80
2019-06-01T03:01:12.022Z,12.80
2019-06-01T03:03:48.494Z,12.80
2019-06-01T03:06:27.685Z,12.80
2019-06-01T03:09:06.716Z,12.80
2019-06-01T03:11:43.776Z,12.80
2019-06-01T03:14:22.703Z,12.80
2019-06-01T03:17:01.887Z,12.80
2019-06-01T03:19:40.222Z,12.80
2019-06-01T03:22:17.955Z,12.80
2019-06-01T03:24:57.335Z,12.80
2019-06-01T03:27:34.079Z,12.80
2019-06-01T03:30:15.140Z,12.90
2019-06-01T03:32:49.605Z,12.90
2019-06-01T03:35:25.865Z,13.00
2019-06-01T03:38:02.989Z,13.00
2019-06-01T03:40:39.325Z,13.00
2019-06-01T03:43:16.077Z,13.00
2019-06-01T03:45:52.345Z,13.00
2019-06-01T03:48:28.580Z,13.10
2019-06-01T03:51:05.699Z,13.20
2019-06-01T03:53:42.063Z,13.30
2019-06-01T03:56:18.316Z,13.30
2019-06-01T03:58:54.989Z,13.40
2019-06-01T04:01:31.202Z,13.50
2019-06-01T04:04:07.454Z,13.60
2019-06-01T04:06:43.737Z,13.70
2019-06-01T04:09:20.017Z,13.80
2019-06-01T04:11:56.218Z,13.90
2019-06-01T04:14:32.392Z,14.00
2019-06-01T04:17:08.532Z,14.10
2019-06-01T04:19:44.704Z,14.30
2019-06-01T04:22:20.947Z,14.40
2019-06-01T04:24:57.179Z,14.50
2019-06-01T04:27:33.416Z,14.70
2019-06-01T04:30:09.791Z,14.90
2019-06-01T04:32:49.784Z,15.20
2019-06-01T04:35:23.799Z,15.40
2019-06-01T04:38:00.039Z,15.60
2019-06-01T04:40:36.128Z,15.90
2019-06-01T04:43:12.309Z,16.10
2019-06-01T04:45:48.542Z,16.30
2019-06-01T04:48:24.718Z,16.40
2019-06-01T04:51:00.924Z,16.60
2019-06-01T04:53:37.141Z,16.80
2019-06-01T04:56:13.364Z,17.00
2019-06-01T04:58:49.607Z,17.30
2019-06-01T05:01:25.930Z,17.60
2019-06-01T05:04:02.215Z,17.90
2019-06-01T05:06:38.455Z,18.30
2019-06-01T05:09:15.686Z,18.50
2019-06-01T05:11:52.232Z,18.70
2019-06-01T05:14:28.444Z,18.90
2019-06-01T05:17:05.805Z,19.10
2019-06-01T05:19:42.236Z,19.30
2019-06-01T05:22:18.483Z,19.50
2019-06-01T05:24:54.625Z,19.70
2019-06-01T05:27:30.801Z,20.00
2019-06-01T05:30:09.462Z,20.20
2019-06-01T05:32:45.828Z,20.50
2019-06-01T05:35:22.051Z,20.80
2019-06-01T05:37:58.309Z,20.90
2019-06-01T05:40:34.452Z,21.10
2019-06-01T05:43:14.213Z,21.30
2019-06-01T05:45:48.515Z,21.50
2019-06-01T05:48:28.482Z,21.50
2019-06-01T05:51:02.436Z,21.50
2019-06-01T05:53:38.678Z,21.70
2019-06-01T05:56:14.951Z,22.00
2019-06-01T05:58:51.133Z,22.10
2019-06-01T06:01:27.357Z,22.10
2019-06-01T06:04:03.607Z,22.20
2019-06-01T06:06:39.873Z,22.60
2019-06-01T06:09:17.160Z,22.90
2019-06-01T06:11:54.089Z,23.20
2019-06-01T06:14:30.278Z,23.40
2019-06-01T06:17:06.607Z,23.60
2019-06-01T06:19:42.748Z,23.80
2019-06-01T06:22:18.991Z,24.10
2019-06-01T06:24:55.123Z,23.80
